sensor_id;sensor_type;location;lat;lon;timestamp;pressure;altitude;pressure_sealevel;temperature;humidity
3697;BME280;60662;48.810;8.872;2023-11-19T08:21:30;96475.28;;;10.76;100.00
3697;BME280;60662;48.810;8.872;2023-11-19T08:22:32;96476.41;;;10.89;100.00
3697;BME280;60662;48.810;8.872;2023-11-19T08:23:33;96492.38;;;11.01;100.00
3697;BME280;60662;48.810;8.872;2023-11-19T08:24:35;96495.50;;;11.44;100.00
3697;BME280;60662;48.810;8.872;2023-11-19T08:25:37;96482.16;;;11.66;100.00
3697;BME280;60662;48.810;8.872;2023-11-19T08:26:38;96486.19;;;11.89;99.53
3697;BME280;60662;48.810;8.872;2023-11-19T08:27:40;96491.84;;;12.95;94.62
3697;BME280;60662;48.810;8.872;2023-11-19T08:28:41;96494.69;;;13.53;90.85
3697;BME280;60662;48.810;8.872;2023-11-19T08:29:43;96486.69;;;13.40;90.24
3697;BME280;60662;48.810;8.872;2023-11-19T08:30:44;96493.91;;;12.90;92.03
3697;BME280;60662;48.810;8.872;2023-11-19T08:31:46;96491.59;;;12.52;94.26
3697;BME280;60662;48.810;8.872;2023-11-19T08:51:02;96492.56;;;11.33;100.00
3697;BME280;60662;48.810;8.872;2023-11-19T08:52:05;96496.25;;;11.46;100.00
3697;BME280;60662;48.810;8.872;2023-11-19T08:53:08;96492.13;;;11.75;100.00
3697;BME280;60662;48.810;8.872;2023-11-19T08:54:10;96491.28;;;11.75;99.58
3697;BME280;60662;48.810;8.872;2023-11-19T08:55:12;96496.25;;;12.31;96.82
3697;BME280;60662;48.810;8.872;2023-11-19T08:56:14;96494.09;;;12.71;93.17
3697;BME280;60662;48.810;8.872;2023-11-19T08:57:16;96490.41;;;12.89;92.88
3697;BME280;60662;48.810;8.872;2023-11-19T08:58:17;96500.50;;;12.81;93.26
3697;BME280;60662;48.810;8.872;2023-11-19T08:59:19;96503.94;;;12.66;93.80
3697;BME280;60662;48.810;8.872;2023-11-19T09:00:20;96495.16;;;12.35;94.77
3697;BME280;60662;48.810;8.872;2023-11-19T09:13:37;96498.47;;;11.36;100.00
3697;BME280;60662;48.810;8.872;2023-11-19T09:19:33;96473.63;;;11.45;98.65
3697;BME280;60662;48.810;8.872;2023-11-19T09:25:00;96506.25;;;11.55;100.00
3697;BME280;60662;48.810;8.872;2023-11-19T09:26:02;96499.53;;;11.50;100.00
3697;BME280;60662;48.810;8.872;2023-11-19T09:27:04;96512.09;;;11.60;99.99
3697;BME280;60662;48.810;8.872;2023-11-19T09:28:06;96502.16;;;11.67;99.66
3697;BME280;60662;48.810;8.872;2023-11-19T09:29:07;96514.16;;;12.38;97.96
3697;BME280;60662;48.810;8.872;2023-11-19T09:30:09;96506.81;;;12.29;96.27
3697;BME280;60662;48.810;8.872;2023-11-19T09:31:18;96502.66;;;12.25;96.40
3697;BME280;60662;48.810;8.872;2023-11-19T09:32:20;96513.41;;;12.36;95.26
3697;BME280;60662;48.810;8.872;2023-11-19T09:33:21;96518.94;;;13.87;90.47
3697;BME280;60662;48.810;8.872;2023-11-19T09:34:23;96512.59;;;14.76;85.36
3697;BME280;60662;48.810;8.872;2023-11-19T09:35:27;55703.94;;;-145.49;100.00
3697;BME280;60662;48.810;8.872;2023-11-19T09:36:29;55703.94;;;-145.49;100.00
3697;BME280;60662;48.810;8.872;2023-11-19T09:37:30;55703.94;;;-145.49;100.00
3697;BME280;60662;48.810;8.872;2023-11-19T09:38:32;55703.94;;;-145.49;100.00
3697;BME280;60662;48.810;8.872;2023-11-19T09:39:34;55703.94;;;-145.49;100.00
3697;BME280;60662;48.810;8.872;2023-11-19T09:40:35;55703.94;;;-145.49;100.00
3697;BME280;60662;48.810;8.872;2023-11-19T09:41:40;55703.94;;;-145.49;100.00
3697;BME280;60662;48.810;8.872;2023-11-19T09:42:45;55703.94;;;-145.49;100.00
3697;BME280;60662;48.810;8.872;2023-11-19T09:43:47;55703.94;;;-145.49;100.00
3697;BME280;60662;48.810;8.872;2023-11-19T09:44:49;55703.94;;;-145.49;100.00
3697;BME280;60662;48.810;8.872;2023-11-19T09:45:50;55703.94;;;-145.49;100.00
3697;BME280;60662;48.810;8.872;2023-11-19T09:46:52;55703.94;;;-145.49;100.00
3697;BME280;60662;48.810;8.872;2023-11-19T09:47:55;55703.94;;;-145.49;100.00
3697;BME280;60662;48.810;8.872;2023-11-19T09:48:59;55703.94;;;-145.49;100.00
3697;BME280;60662;48.810;8.872;2023-11-19T09:50:01;55703.94;;;-145.49;100.00
3697;BME280;60662;48.810;8.872;2023-11-19T09:51:03;55703.94;;;-145.49;100.00
3697;BME280;60662;48.810;8.872;2023-11-19T09:52:05;55703.94;;;-145.49;100.00
3697;BME280;60662;48.810;8.872;2023-11-19T09:53:07;55703.94;;;-145.49;100.00
3697;BME280;60662;48.810;8.872;2023-11-19T09:54:09;55703.94;;;-145.49;100.00
3697;BME280;60662;48.810;8.872;2023-11-19T09:55:10;55703.94;;;-145.49;100.00
3697;BME280;60662;48.810;8.872;2023-11-19T09:56:12;55703.94;;;-145.49;100.00
3697;BME280;60662;48.810;8.872;2023-11-19T09:57:16;55703.94;;;-145.49;100.00
3697;BME280;60662;48.810;8.872;2023-11-19T09:58:19;55703.94;;;-145.49;100.00
3697;BME280;60662;48.810;8.872;2023-11-19T09:59:20;55703.94;;;-145.49;100.00
3697;BME280;60662;48.810;8.872;2023-11-19T10:00:22;55703.94;;;-145.49;100.00
3697;BME280;60662;48.810;8.872;2023-11-19T10:01:24;55703.94;;;-145.49;100.00
3697;BME280;60662;48.810;8.872;2023-11-19T10:02:31;55703.94;;;-145.49;100.00
3697;BME280;60662;48.810;8.872;2023-11-19T10:03:35;55703.94;;;-145.49;100.00
3697;BME280;60662;48.810;8.872;2023-11-19T10:04:40;55703.94;;;-145.49;100.00
3697;BME280;60662;48.810;8.872;2023-11-19T10:05:44;55703.94;;;-145.49;100.00
3697;BME280;60662;48.810;8.872;2023-11-19T10:06:45;55703.94;;;-145.49;100.00
3697;BME280;60662;48.810;8.872;2023-11-19T10:07:47;55703.94;;;-145.49;100.00
3697;BME280;60662;48.810;8.872;2023-11-19T10:08:49;55703.94;;;-145.49;100.00
3697;BME280;60662;48.810;8.872;2023-11-19T10:09:51;55703.94;;;-145.49;100.00
3697;BME280;60662;48.810;8.872;2023-11-19T10:10:52;55703.94;;;-145.49;100.00
3697;BME280;60662;48.810;8.872;2023-11-19T10:11:54;55703.94;;;-145.49;100.00
3697;BME280;60662;48.810;8.872;2023-11-19T10:12:56;55703.94;;;-145.49;100.00
3697;BME280;60662;48.810;8.872;2023-11-19T10:13:59;55703.94;;;-145.49;100.00
3697;BME280;60662;48.810;8.872;2023-11-19T10:15:01;55703.94;;;-145.49;100.00
3697;BME280;60662;48.810;8.872;2023-11-19T10:16:06;55703.94;;;-145.49;100.00
3697;BME280;60662;48.810;8.872;2023-11-19T10:17:09;55703.94;;;-145.49;100.00
3697;BME280;60662;48.810;8.872;2023-11-19T10:18:14;55703.94;;;-145.49;100.00
3697;BME280;60662;48.810;8.872;2023-11-19T10:19:19;55703.94;;;-145.49;100.00
3697;BME280;60662;48.810;8.872;2023-11-19T10:20:22;55703.94;;;-145.49;100.00
3697;BME280;60662;48.810;8.872;2023-11-19T10:21:24;55703.94;;;-145.49;100.00
3697;BME280;60662;48.810;8.872;2023-11-19T10:22:27;55703.94;;;-145.49;100.00
3697;BME280;60662;48.810;8.872;2023-11-19T10:23:29;55703.94;;;-145.49;100.00
3697;BME280;60662;48.810;8.872;2023-11-19T10:24:34;55703.94;;;-145.49;100.00
3697;BME280;60662;48.810;8.872;2023-11-19T10:25:40;55703.94;;;-145.49;100.00
3697;BME280;60662;48.810;8.872;2023-11-19T10:26:41;55703.94;;;-145.49;100.00
3697;BME280;60662;48.810;8.872;2023-11-19T10:27:43;55703.94;;;-145.49;100.00
3697;BME280;60662;48.810;8.872;2023-11-19T10:28:46;55703.94;;;-145.49;100.00
3697;BME280;60662;48.810;8.872;2023-11-19T10:29:48;55703.94;;;-145.49;100.00
3697;BME280;60662;48.810;8.872;2023-11-19T10:30:56;55703.94;;;-145.49;100.00
3697;BME280;60662;48.810;8.872;2023-11-19T10:31:58;55703.94;;;-145.49;100.00
3697;BME280;60662;48.810;8.872;2023-11-19T10:33:20;55703.94;;;-145.49;100.00
3697;BME280;60662;48.810;8.872;2023-11-19T10:34:26;55703.94;;;-145.49;100.00
3697;BME280;60662;48.810;8.872;2023-11-19T10:35:28;55703.94;;;-145.49;100.00
3697;BME280;60662;48.810;8.872;2023-11-19T10:36:47;55703.94;;;-145.49;100.00
3697;BME280;60662;48.810;8.872;2023-11-19T10:37:49;55703.94;;;-145.49;100.00
3697;BME280;60662;48.810;8.872;2023-11-19T10:38:54;55703.94;;;-145.49;100.00
3697;BME280;60662;48.810;8.872;2023-11-19T10:39:55;55703.94;;;-145.49;100.00
3697;BME280;60662;48.810;8.872;2023-11-19T10:40:57;55703.94;;;-145.49;100.00
3697;BME280;60662;48.810;8.872;2023-11-19T10:42:15;55703.94;;;-145.49;100.00
3697;BME280;60662;48.810;8.872;2023-11-19T10:43:17;55703.94;;;-145.49;100.00
3697;BME280;60662;48.810;8.872;2023-11-19T10:44:34;55703.94;;;-145.49;100.00
3697;BME280;60662;48.810;8.872;2023-11-19T10:45:38;55703.94;;;-145.49;100.00
3697;BME280;60662;48.810;8.872;2023-11-19T10:46:41;55703.94;;;-145.49;100.00
3697;BME280;60662;48.810;8.872;2023-11-19T10:47:43;55703.94;;;-145.49;100.00
3697;BME280;60662;48.810;8.872;2023-11-19T10:48:45;55703.94;;;-145.49;100.00
3697;BME280;60662;48.810;8.872;2023-11-19T10:49:46;55703.94;;;-145.49;100.00
3697;BME280;60662;48.810;8.872;2023-11-19T10:50:53;55703.94;;;-145.49;100.00
3697;BME280;60662;48.810;8.872;2023-11-19T10:51:55;55703.94;;;-145.49;100.00
3697;BME280;60662;48.810;8.872;2023-11-19T10:52:59;55703.94;;;-145.49;100.00
3697;BME280;60662;48.810;8.872;2023-11-19T10:54:05;55703.94;;;-145.49;100.00
3697;BME280;60662;48.810;8.872;2023-11-19T10:55:09;55703.94;;;-145.49;100.00
3697;BME280;60662;48.810;8.872;2023-11-19T10:56:13;55703.94;;;-145.49;100.00
3697;BME280;60662;48.810;8.872;2023-11-19T10:57:20;55703.94;;;-145.49;100.00
3697;BME280;60662;48.810;8.872;2023-11-19T10:58:28;55703.94;;;-145.49;100.00
3697;BME280;60662;48.810;8.872;2023-11-19T10:59:31;55703.94;;;-145.49;100.00
3697;BME280;60662;48.810;8.872;2023-11-19T11:01:53;55703.94;;;-145.49;100.00
3697;BME280;60662;48.810;8.872;2023-11-19T11:03:00;55703.94;;;-145.49;100.00
3697;BME280;60662;48.810;8.872;2023-11-19T11:04:02;55703.94;;;-145.49;100.00
3697;BME280;60662;48.810;8.872;2023-11-19T11:05:05;55703.94;;;-145.49;100.00
3697;BME280;60662;48.810;8.872;2023-11-19T11:06:08;55703.94;;;-145.49;100.00
3697;BME280;60662;48.810;8.872;2023-11-19T11:07:11;55703.94;;;-145.49;100.00
3697;BME280;60662;48.810;8.872;2023-11-19T11:08:14;55703.94;;;-145.49;100.00
3697;BME280;60662;48.810;8.872;2023-11-19T11:09:17;55703.94;;;-145.49;100.00
3697;BME280;60662;48.810;8.872;2023-11-19T11:10:19;55703.94;;;-145.49;100.00
3697;BME280;60662;48.810;8.872;2023-11-19T11:11:24;55703.94;;;-145.49;100.00
3697;BME280;60662;48.810;8.872;2023-11-19T11:12:28;55703.94;;;-145.49;100.00
3697;BME280;60662;48.810;8.872;2023-11-19T11:13:29;55703.94;;;-145.49;100.00
3697;BME280;60662;48.810;8.872;2023-11-19T11:14:34;55703.94;;;-145.49;100.00
3697;BME280;60662;48.810;8.872;2023-11-19T11:15:37;55703.94;;;-145.49;100.00
3697;BME280;60662;48.810;8.872;2023-11-19T11:16:43;55703.94;;;-145.49;100.00
3697;BME280;60662;48.810;8.872;2023-11-19T11:17:45;55703.94;;;-145.49;100.00
3697;BME280;60662;48.810;8.872;2023-11-19T11:18:48;55703.94;;;-145.49;100.00
3697;BME280;60662;48.810;8.872;2023-11-19T11:19:53;55703.94;;;-145.49;100.00
3697;BME280;60662;48.810;8.872;2023-11-19T11:22:06;55703.94;;;-145.49;100.00
3697;BME280;60662;48.810;8.872;2023-11-19T11:27:49;55703.94;;;-145.49;100.00
3697;BME280;60662;48.810;8.872;2023-11-19T11:28:48;55703.94;;;-145.49;100.00
3697;BME280;60662;48.810;8.872;2023-11-19T11:31:26;55703.94;;;-145.49;100.00
3697;BME280;60662;48.810;8.872;2023-11-19T11:32:45;55703.94;;;-145.49;100.00
3697;BME280;60662;48.810;8.872;2023-11-19T11:36:21;55703.94;;;-145.49;100.00
3697;BME280;60662;48.810;8.872;2023-11-19T11:37:37;55703.94;;;-145.49;100.00
3697;BME280;60662;48.810;8.872;2023-11-19T11:38:40;55703.94;;;-145.49;100.00
3697;BME280;60662;48.810;8.872;2023-11-19T11:39:43;55703.94;;;-145.49;100.00
3697;BME280;60662;48.810;8.872;2023-11-19T11:41:17;55703.94;;;-145.49;100.00
3697;BME280;60662;48.810;8.872;2023-11-19T11:43:58;55703.94;;;-145.49;100.00
3697;BME280;60662;48.810;8.872;2023-11-19T11:46:07;55703.94;;;-145.49;100.00
3697;BME280;60662;48.810;8.872;2023-11-19T11:47:09;55703.94;;;-145.49;100.00
3697;BME280;60662;48.810;8.872;2023-11-19T11:48:15;55703.94;;;-145.49;100.00
3697;BME280;60662;48.810;8.872;2023-11-19T11:49:24;55703.94;;;-145.49;100.00
3697;BME280;60662;48.810;8.872;2023-11-19T11:50:26;55703.94;;;-145.49;100.00
3697;BME280;60662;48.810;8.872;2023-11-19T11:53:59;55703.94;;;-145.49;100.00
3697;BME280;60662;48.810;8.872;2023-11-19T11:55:07;55703.94;;;-145.49;100.00
3697;BME280;60662;48.810;8.872;2023-11-19T11:56:10;55703.94;;;-145.49;100.00
3697;BME280;60662;48.810;8.872;2023-11-19T11:57:13;55703.94;;;-145.49;100.00
3697;BME280;60662;48.810;8.872;2023-11-19T11:58:21;55703.94;;;-145.49;100.00
3697;BME280;60662;48.810;8.872;2023-11-19T11:59:53;55703.94;;;-145.49;100.00
3697;BME280;60662;48.810;8.872;2023-11-19T12:00:53;55703.94;;;-145.49;100.00
3697;BME280;60662;48.810;8.872;2023-11-19T12:01:58;55703.94;;;-145.49;100.00
3697;BME280;60662;48.810;8.872;2023-11-19T12:03:00;55703.94;;;-145.49;100.00
3697;BME280;60662;48.810;8.872;2023-11-19T12:04:04;55703.94;;;-145.49;100.00
3697;BME280;60662;48.810;8.872;2023-11-19T12:05:06;55703.94;;;-145.49;100.00
3697;BME280;60662;48.810;8.872;2023-11-19T12:06:08;55703.94;;;-145.49;100.00
3697;BME280;60662;48.810;8.872;2023-11-19T12:07:16;55703.94;;;-145.49;100.00
3697;BME280;60662;48.810;8.872;2023-11-19T12:08:19;55703.94;;;-145.49;100.00
3697;BME280;60662;48.810;8.872;2023-11-19T12:09:27;55703.94;;;-145.49;100.00
3697;BME280;60662;48.810;8.872;2023-11-19T12:10:36;55703.94;;;-145.49;100.00
3697;BME280;60662;48.810;8.872;2023-11-19T12:11:47;55703.94;;;-145.49;100.00
3697;BME280;60662;48.810;8.872;2023-11-19T12:12:48;55703.94;;;-145.49;100.00
3697;BME280;60662;48.810;8.872;2023-11-19T12:13:55;55703.94;;;-145.49;100.00
3697;BME280;60662;48.810;8.872;2023-11-19T12:18:35;55703.94;;;-145.49;100.00
3697;BME280;60662;48.810;8.872;2023-11-19T12:19:41;55703.94;;;-145.49;100.00
3697;BME280;60662;48.810;8.872;2023-11-19T12:20:43;55703.94;;;-145.49;100.00
3697;BME280;60662;48.810;8.872;2023-11-19T12:21:44;55703.94;;;-145.49;100.00
3697;BME280;60662;48.810;8.872;2023-11-19T12:22:46;55703.94;;;-145.49;100.00
3697;BME280;60662;48.810;8.872;2023-11-19T12:23:50;55703.94;;;-145.49;100.00
3697;BME280;60662;48.810;8.872;2023-11-19T12:24:54;55703.94;;;-145.49;100.00
3697;BME280;60662;48.810;8.872;2023-11-19T12:25:56;55703.94;;;-145.49;100.00
3697;BME280;60662;48.810;8.872;2023-11-19T12:26:57;55703.94;;;-145.49;100.00
3697;BME280;60662;48.810;8.872;2023-11-19T12:28:00;55703.94;;;-145.49;100.00
3697;BME280;60662;48.810;8.872;2023-11-19T12:29:05;55703.94;;;-145.49;100.00
3697;BME280;60662;48.810;8.872;2023-11-19T12:30:10;55703.94;;;-145.49;100.00
3697;BME280;60662;48.810;8.872;2023-11-19T12:31:12;55703.94;;;-145.49;100.00
3697;BME280;60662;48.810;8.872;2023-11-19T12:32:13;55703.94;;;-145.49;100.00
3697;BME280;60662;48.810;8.872;2023-11-19T12:33:16;55703.94;;;-145.49;100.00
3697;BME280;60662;48.810;8.872;2023-11-19T12:34:18;55703.94;;;-145.49;100.00
3697;BME280;60662;48.810;8.872;2023-11-19T12:35:19;55703.94;;;-145.49;100.00
3697;BME280;60662;48.810;8.872;2023-11-19T12:36:21;55703.94;;;-145.49;100.00
3697;BME280;60662;48.810;8.872;2023-11-19T12:37:22;55703.94;;;-145.49;100.00
3697;BME280;60662;48.810;8.872;2023-11-19T12:38:25;55703.94;;;-145.49;100.00
3697;BME280;60662;48.810;8.872;2023-11-19T12:39:30;55703.94;;;-145.49;100.00
3697;BME280;60662;48.810;8.872;2023-11-19T12:40:31;55703.94;;;-145.49;100.00
3697;BME280;60662;48.810;8.872;2023-11-19T12:41:48;55703.94;;;-145.49;100.00
3697;BME280;60662;48.810;8.872;2023-11-19T12:42:52;55703.94;;;-145.49;100.00
3697;BME280;60662;48.810;8.872;2023-11-19T12:43:54;55703.94;;;-145.49;100.00
3697;BME280;60662;48.810;8.872;2023-11-19T12:44:55;55703.94;;;-145.49;100.00
3697;BME280;60662;48.810;8.872;2023-11-19T12:46:01;55703.94;;;-145.49;100.00
3697;BME280;60662;48.810;8.872;2023-11-19T12:47:06;55703.94;;;-145.49;100.00
3697;BME280;60662;48.810;8.872;2023-11-19T12:48:08;55703.94;;;-145.49;100.00
3697;BME280;60662;48.810;8.872;2023-11-19T12:49:11;55703.94;;;-145.49;100.00
3697;BME280;60662;48.810;8.872;2023-11-19T12:50:12;55703.94;;;-145.49;100.00
3697;BME280;60662;48.810;8.872;2023-11-19T12:51:14;55703.94;;;-145.49;100.00
3697;BME280;60662;48.810;8.872;2023-11-19T12:52:18;55703.94;;;-145.49;100.00
3697;BME280;60662;48.810;8.872;2023-11-19T12:53:21;55703.94;;;-145.49;100.00
3697;BME280;60662;48.810;8.872;2023-11-19T12:54:33;55703.94;;;-145.49;100.00
3697;BME280;60662;48.810;8.872;2023-11-19T12:55:35;55703.94;;;-145.49;100.00
3697;BME280;60662;48.810;8.872;2023-11-19T12:56:36;55703.94;;;-145.49;100.00
3697;BME280;60662;48.810;8.872;2023-11-19T12:57:40;55703.94;;;-145.49;100.00
3697;BME280;60662;48.810;8.872;2023-11-19T12:58:42;55703.94;;;-145.49;100.00
3697;BME280;60662;48.810;8.872;2023-11-19T12:59:55;55703.94;;;-145.49;100.00
3697;BME280;60662;48.810;8.872;2023-11-19T13:01:06;55703.94;;;-145.49;100.00
3697;BME280;60662;48.810;8.872;2023-11-19T13:02:08;55703.94;;;-145.49;100.00
3697;BME280;60662;48.810;8.872;2023-11-19T13:03:10;55703.94;;;-145.49;100.00
3697;BME280;60662;48.810;8.872;2023-11-19T13:04:17;55703.94;;;-145.49;100.00
3697;BME280;60662;48.810;8.872;2023-11-19T13:05:22;55703.94;;;-145.49;100.00
3697;BME280;60662;48.810;8.872;2023-11-19T13:06:24;55703.94;;;-145.49;100.00
3697;BME280;60662;48.810;8.872;2023-11-19T13:07:25;55703.94;;;-145.49;100.00
3697;BME280;60662;48.810;8.872;2023-11-19T13:08:26;55703.94;;;-145.49;100.00
3697;BME280;60662;48.810;8.872;2023-11-19T13:09:28;55703.94;;;-145.49;100.00
3697;BME280;60662;48.810;8.872;2023-11-19T13:10:31;55703.94;;;-145.49;100.00
3697;BME280;60662;48.810;8.872;2023-11-19T13:11:34;55703.94;;;-145.49;100.00
3697;BME280;60662;48.810;8.872;2023-11-19T13:12:36;55703.94;;;-145.49;100.00
3697;BME280;60662;48.810;8.872;2023-11-19T13:13:57;55703.94;;;-145.49;100.00
3697;BME280;60662;48.810;8.872;2023-11-19T13:14:59;55703.94;;;-145.49;100.00
3697;BME280;60662;48.810;8.872;2023-11-19T13:16:05;55703.94;;;-145.49;100.00
3697;BME280;60662;48.810;8.872;2023-11-19T13:17:14;55703.94;;;-145.49;100.00
3697;BME280;60662;48.810;8.872;2023-11-19T13:18:16;55703.94;;;-145.49;100.00
3697;BME280;60662;48.810;8.872;2023-11-19T13:19:18;55703.94;;;-145.49;100.00
3697;BME280;60662;48.810;8.872;2023-11-19T13:20:20;55703.94;;;-145.49;100.00
3697;BME280;60662;48.810;8.872;2023-11-19T13:21:23;55703.94;;;-145.49;100.00
3697;BME280;60662;48.810;8.872;2023-11-19T13:22:24;55703.94;;;-145.49;100.00
3697;BME280;60662;48.810;8.872;2023-11-19T13:23:26;55703.94;;;-145.49;100.00
3697;BME280;60662;48.810;8.872;2023-11-19T13:24:27;55703.94;;;-145.49;100.00
3697;BME280;60662;48.810;8.872;2023-11-19T13:25:30;55703.94;;;-145.49;100.00
3697;BME280;60662;48.810;8.872;2023-11-19T13:26:32;55703.94;;;-145.49;100.00
3697;BME280;60662;48.810;8.872;2023-11-19T13:27:33;55703.94;;;-145.49;100.00
3697;BME280;60662;48.810;8.872;2023-11-19T13:28:35;55703.94;;;-145.49;100.00
3697;BME280;60662;48.810;8.872;2023-11-19T13:29:36;55703.94;;;-145.49;100.00
3697;BME280;60662;48.810;8.872;2023-11-19T13:30:38;55703.94;;;-145.49;100.00
3697;BME280;60662;48.810;8.872;2023-11-19T13:31:39;55703.94;;;-145.49;100.00
3697;BME280;60662;48.810;8.872;2023-11-19T13:32:41;55703.94;;;-145.49;100.00
3697;BME280;60662;48.810;8.872;2023-11-19T13:33:42;55703.94;;;-145.49;100.00
3697;BME280;60662;48.810;8.872;2023-11-19T13:34:44;55703.94;;;-145.49;100.00
3697;BME280;60662;48.810;8.872;2023-11-19T13:35:45;55703.94;;;-145.49;100.00
3697;BME280;60662;48.810;8.872;2023-11-19T13:36:47;55703.94;;;-145.49;100.00
3697;BME280;60662;48.810;8.872;2023-11-19T13:37:48;55703.94;;;-145.49;100.00
3697;BME280;60662;48.810;8.872;2023-11-19T13:38:50;55703.94;;;-145.49;100.00
3697;BME280;60662;48.810;8.872;2023-11-19T13:39:51;55703.94;;;-145.49;100.00
3697;BME280;60662;48.810;8.872;2023-11-19T13:40:53;55703.94;;;-145.49;100.00
3697;BME280;60662;48.810;8.872;2023-11-19T13:41:55;55703.94;;;-145.49;100.00
3697;BME280;60662;48.810;8.872;2023-11-19T13:43:14;55703.94;;;-145.49;100.00
3697;BME280;60662;48.810;8.872;2023-11-19T13:44:16;55703.94;;;-145.49;100.00
3697;BME280;60662;48.810;8.872;2023-11-19T13:45:18;55703.94;;;-145.49;100.00
3697;BME280;60662;48.810;8.872;2023-11-19T13:46:21;55703.94;;;-145.49;100.00
3697;BME280;60662;48.810;8.872;2023-11-19T13:47:23;55703.94;;;-145.49;100.00
3697;BME280;60662;48.810;8.872;2023-11-19T13:48:25;55703.94;;;-145.49;100.00
3697;BME280;60662;48.810;8.872;2023-11-19T13:49:28;55703.94;;;-145.49;100.00
3697;BME280;60662;48.810;8.872;2023-11-19T13:50:30;55703.94;;;-145.49;100.00
3697;BME280;60662;48.810;8.872;2023-11-19T13:51:31;55703.94;;;-145.49;100.00
3697;BME280;60662;48.810;8.872;2023-11-19T13:52:33;55703.94;;;-145.49;100.00
3697;BME280;60662;48.810;8.872;2023-11-19T13:53:35;55703.94;;;-145.49;100.00
3697;BME280;60662;48.810;8.872;2023-11-19T13:54:39;55703.94;;;-145.49;100.00
3697;BME280;60662;48.810;8.872;2023-11-19T13:55:42;55703.94;;;-145.49;100.00
3697;BME280;60662;48.810;8.872;2023-11-19T13:56:44;55703.94;;;-145.49;100.00
3697;BME280;60662;48.810;8.872;2023-11-19T13:57:48;55703.94;;;-145.49;100.00
3697;BME280;60662;48.810;8.872;2023-11-19T13:58:50;55703.94;;;-145.49;100.00
3697;BME280;60662;48.810;8.872;2023-11-19T13:59:52;55703.94;;;-145.49;100.00
3697;BME280;60662;48.810;8.872;2023-11-19T14:00:53;55703.94;;;-145.49;100.00
3697;BME280;60662;48.810;8.872;2023-11-19T14:01:55;55703.94;;;-145.49;100.00
3697;BME280;60662;48.810;8.872;2023-11-19T14:02:56;55703.94;;;-145.49;100.00
3697;BME280;60662;48.810;8.872;2023-11-19T14:03:58;55703.94;;;-145.49;100.00
3697;BME280;60662;48.810;8.872;2023-11-19T14:04:59;55703.94;;;-145.49;100.00
3697;BME280;60662;48.810;8.872;2023-11-19T14:06:01;55703.94;;;-145.49;100.00
3697;BME280;60662;48.810;8.872;2023-11-19T14:07:04;55703.94;;;-145.49;100.00
3697;BME280;60662;48.810;8.872;2023-11-19T14:08:05;55703.94;;;-145.49;100.00
3697;BME280;60662;48.810;8.872;2023-11-19T14:09:25;55703.94;;;-145.49;100.00
3697;BME280;60662;48.810;8.872;2023-11-19T14:10:27;55703.94;;;-145.49;100.00
3697;BME280;60662;48.810;8.872;2023-11-19T14:11:28;55703.94;;;-145.49;100.00
3697;BME280;60662;48.810;8.872;2023-11-19T14:12:30;55703.94;;;-145.49;100.00
3697;BME280;60662;48.810;8.872;2023-11-19T14:13:32;55703.94;;;-145.49;100.00
3697;BME280;60662;48.810;8.872;2023-11-19T14:14:34;55703.94;;;-145.49;100.00
3697;BME280;60662;48.810;8.872;2023-11-19T14:15:35;55703.94;;;-145.49;100.00
3697;BME280;60662;48.810;8.872;2023-11-19T14:16:37;55703.94;;;-145.49;100.00
3697;BME280;60662;48.810;8.872;2023-11-19T14:17:39;55703.94;;;-145.49;100.00
3697;BME280;60662;48.810;8.872;2023-11-19T14:18:41;55703.94;;;-145.49;100.00
3697;BME280;60662;48.810;8.872;2023-11-19T14:19:42;55703.94;;;-145.49;100.00
3697;BME280;60662;48.810;8.872;2023-11-19T14:20:44;55703.94;;;-145.49;100.00
3697;BME280;60662;48.810;8.872;2023-11-19T14:21:45;55703.94;;;-145.49;100.00
3697;BME280;60662;48.810;8.872;2023-11-19T14:22:49;55703.94;;;-145.49;100.00
3697;BME280;60662;48.810;8.872;2023-11-19T14:23:52;55703.94;;;-145.49;100.00
3697;BME280;60662;48.810;8.872;2023-11-19T14:24:54;55703.94;;;-145.49;100.00
3697;BME280;60662;48.810;8.872;2023-11-19T14:25:56;55703.94;;;-145.49;100.00
3697;BME280;60662;48.810;8.872;2023-11-19T14:26:58;55703.94;;;-145.49;100.00
3697;BME280;60662;48.810;8.872;2023-11-19T14:28:00;55703.94;;;-145.49;100.00
3697;BME280;60662;48.810;8.872;2023-11-19T14:29:04;55703.94;;;-145.49;100.00
3697;BME280;60662;48.810;8.872;2023-11-19T14:30:06;55703.94;;;-145.49;100.00
3697;BME280;60662;48.810;8.872;2023-11-19T14:31:08;55703.94;;;-145.49;100.00
3697;BME280;60662;48.810;8.872;2023-11-19T14:32:10;55703.94;;;-145.49;100.00
3697;BME280;60662;48.810;8.872;2023-11-19T14:33:12;55703.94;;;-145.49;100.00
3697;BME280;60662;48.810;8.872;2023-11-19T14:34:14;55703.94;;;-145.49;100.00
3697;BME280;60662;48.810;8.872;2023-11-19T14:35:16;55703.94;;;-145.49;100.00
3697;BME280;60662;48.810;8.872;2023-11-19T14:36:17;55703.94;;;-145.49;100.00
3697;BME280;60662;48.810;8.872;2023-11-19T14:37:19;55703.94;;;-145.49;100.00
3697;BME280;60662;48.810;8.872;2023-11-19T14:38:21;55703.94;;;-145.49;100.00
3697;BME280;60662;48.810;8.872;2023-11-19T14:39:22;55703.94;;;-145.49;100.00
3697;BME280;60662;48.810;8.872;2023-11-19T14:40:24;55703.94;;;-145.49;100.00
3697;BME280;60662;48.810;8.872;2023-11-19T14:41:43;55703.94;;;-145.49;100.00
3697;BME280;60662;48.810;8.872;2023-11-19T14:42:45;55703.94;;;-145.49;100.00
3697;BME280;60662;48.810;8.872;2023-11-19T14:43:47;55703.94;;;-145.49;100.00
3697;BME280;60662;48.810;8.872;2023-11-19T14:44:49;55703.94;;;-145.49;100.00
3697;BME280;60662;48.810;8.872;2023-11-19T14:45:50;55703.94;;;-145.49;100.00
3697;BME280;60662;48.810;8.872;2023-11-19T14:46:52;55703.94;;;-145.49;100.00
3697;BME280;60662;48.810;8.872;2023-11-19T14:47:54;55703.94;;;-145.49;100.00
3697;BME280;60662;48.810;8.872;2023-11-19T14:48:56;55703.94;;;-145.49;100.00
3697;BME280;60662;48.810;8.872;2023-11-19T14:49:57;55703.94;;;-145.49;100.00